Time;durP1;ratioP1;P1;durP2;ratioP2;P2;SDS_P1;SDS_P2;PMS_P1;PMS_P2;Temp;Humidity;BMP_temperature;BMP_pressure;BME280_temperature;BME280_humidity;BME280_pressure;Samples;Min_cycle;Max_cycle;Signal;HPM_P1;HPM_P2
2023/01/31 00:01:34;;;;;;;14.07;6.40;;;2.70;99.90;;;;;;4994349;28;20204;-67
2023/01/31 00:04:08;;;;;;;12.87;6.23;;;2.70;99.90;;;;;;4995992;28;20701;-68
2023/01/31 00:06:41;;;;;;;16.67;6.27;;;2.80;99.90;;;;;;5015698;28;20275;-66
2023/01/31 00:09:09;;;;;;;16.57;6.17;;;2.70;99.90;;;;;;5030934;28;20577;-68
2023/01/31 00:11:37;;;;;;;11.47;6.17;;;2.80;99.90;;;;;;4999011;28;20202;-70
2023/01/31 00:14:06;;;;;;;12.33;5.93;;;2.80;99.90;;;;;;4997778;28;20616;-70
2023/01/31 00:16:33;;;;;;;14.30;6.37;;;2.80;99.90;;;;;;4997897;28;20232;-69
2023/01/31 00:19:01;;;;;;;14.80;6.53;;;2.80;99.90;;;;;;5015307;28;20676;-70
2023/01/31 00:21:29;;;;;;;12.40;6.00;;;2.80;99.90;;;;;;4997890;28;20205;-68
2023/01/31 00:23:58;;;;;;;12.70;6.03;;;2.80;99.90;;;;;;5015538;28;20671;-70
2023/01/31 00:26:31;;;;;;;13.43;6.20;;;2.80;99.90;;;;;;5001122;28;20203;-69
2023/01/31 00:29:03;;;;;;;12.27;6.27;;;2.80;99.90;;;;;;4997403;28;20231;-69
2023/01/31 00:31:32;;;;;;;12.90;5.73;;;2.80;99.90;;;;;;4997551;28;20199;-69
2023/01/31 00:33:59;;;;;;;13.97;6.57;;;2.80;99.90;;;;;;4998026;28;20211;-69
2023/01/31 00:36:29;;;;;;;12.67;5.93;;;2.90;99.90;;;;;;4980999;28;20217;-68
2023/01/31 00:38:58;;;;;;;16.07;5.87;;;2.80;99.90;;;;;;5015167;28;20235;-69
2023/01/31 00:41:27;;;;;;;15.03;6.03;;;2.80;99.90;;;;;;5015179;28;20517;-69
2023/01/31 00:43:54;;;;;;;10.87;5.73;;;2.80;99.90;;;;;;5018819;28;20293;-68
2023/01/31 00:46:22;;;;;;;14.00;5.73;;;2.80;99.90;;;;;;4997452;28;20196;-69
2023/01/31 00:48:50;;;;;;;14.37;5.83;;;2.80;99.90;;;;;;5030286;28;20200;-69
2023/01/31 00:51:18;;;;;;;11.43;5.57;;;2.80;99.90;;;;;;5015061;28;20692;-72
2023/01/31 00:53:46;;;;;;;14.97;6.10;;;2.80;99.90;;;;;;5015052;28;20205;-72
2023/01/31 00:56:21;;;;;;;11.77;5.70;;;2.80;99.90;;;;;;4998249;28;20196;-72
2023/01/31 00:58:49;;;;;;;16.93;6.10;;;2.80;99.90;;;;;;5007361;28;20216;-78
2023/01/31 01:01:22;;;;;;;9.90;5.57;;;2.80;99.90;;;;;;5010129;28;20286;-70
2023/01/31 01:03:58;;;;;;;12.53;5.80;;;2.90;99.90;;;;;;4997325;28;20196;-72
2023/01/31 01:06:37;;;;;;;12.10;5.40;;;2.90;99.90;;;;;;4984522;28;20672;-65
2023/01/31 01:09:03;;;;;;;13.57;5.60;;;2.80;99.90;;;;;;4993615;28;20224;-65
2023/01/31 01:11:32;;;;;;;10.93;5.63;;;2.80;99.90;;;;;;4987217;28;20223;-64
2023/01/31 01:14:01;;;;;;;11.87;5.80;;;2.80;99.90;;;;;;4984830;28;20216;-67
2023/01/31 01:16:34;;;;;;;12.00;5.33;;;2.90;99.90;;;;;;4993936;28;20231;-68
2023/01/31 01:19:10;;;;;;;17.03;6.20;;;2.90;99.90;;;;;;4990428;28;20258;-66
2023/01/31 01:21:40;;;;;;;11.77;5.77;;;2.90;99.90;;;;;;4993273;28;20231;-68
2023/01/31 01:24:13;;;;;;;11.67;5.73;;;2.90;99.90;;;;;;4993436;28;20200;-68
2023/01/31 01:26:40;;;;;;;12.13;5.47;;;2.90;99.90;;;;;;4993416;28;20192;-71
2023/01/31 01:29:07;;;;;;;14.60;5.87;;;2.80;99.90;;;;;;4977013;28;20233;-70
2023/01/31 01:31:34;;;;;;;13.93;5.80;;;2.80;99.90;;;;;;4982110;28;20193;-70
2023/01/31 01:34:05;;;;;;;15.67;5.87;;;2.90;99.90;;;;;;4992965;28;20209;-70
2023/01/31 01:36:34;;;;;;;10.10;5.53;;;2.90;99.90;;;;;;4992083;28;20229;-71
2023/01/31 01:39:03;;;;;;;12.63;5.77;;;2.90;99.90;;;;;;4991234;28;20712;-70
2023/01/31 01:41:34;;;;;;;11.90;5.43;;;2.90;99.90;;;;;;4992845;28;20678;-72
2023/01/31 01:44:44;;;;;;;11.57;5.13;;;2.90;99.90;;;;;;4992989;28;20225;-71
2023/01/31 01:47:33;;;;;;;15.40;5.53;;;2.80;99.90;;;;;;4994309;28;20258;-72
2023/01/31 01:50:06;;;;;;;11.50;5.30;;;2.80;99.90;;;;;;4993232;28;20221;-72
2023/01/31 01:52:38;;;;;;;14.13;5.80;;;2.80;99.90;;;;;;5009510;28;20529;-72
2023/01/31 01:55:17;;;;;;;11.30;5.33;;;2.80;99.90;;;;;;4991395;28;20571;-73
2023/01/31 01:57:48;;;;;;;12.77;6.10;;;2.80;99.90;;;;;;4992844;28;20239;-74
2023/01/31 02:00:28;;;;;;;13.47;5.57;;;2.70;99.90;;;;;;4989575;28;20220;-70
2023/01/31 02:02:58;;;;;;;13.23;5.97;;;2.80;99.90;;;;;;4991540;28;20216;-72
2023/01/31 02:05:32;;;;;;;12.93;5.77;;;2.80;99.90;;;;;;4991442;28;20185;-71
2023/01/31 02:08:01;;;;;;;16.30;6.10;;;2.70;99.90;;;;;;4992607;28;20201;-75
2023/01/31 02:10:54;;;;;;;15.13;4.97;;;2.70;99.90;;;;;;4990938;28;20213;-73
2023/01/31 02:13:22;;;;;;;13.17;5.30;;;2.70;99.90;;;;;;4932344;29;20207;-73
2023/01/31 02:15:49;;;;;;;11.67;5.70;;;2.80;99.90;;;;;;4931810;29;20226;-74
2023/01/31 02:18:19;;;;;;;11.40;5.17;;;2.80;99.90;;;;;;4932096;29;20220;-74
2023/01/31 02:21:14;;;;;;;14.10;5.57;;;2.80;99.90;;;;;;4933233;29;20209;-77
2023/01/31 02:24:01;;;;;;;14.40;5.57;;;2.80;99.90;;;;;;4933045;29;20202;-72
2023/01/31 02:26:56;;;;;;;12.83;4.83;;;2.80;99.90;;;;;;4916587;29;20207;-76
2023/01/31 02:30:01;;;;;;;13.00;5.23;;;2.80;99.90;;;;;;4917785;29;20241;-70
2023/01/31 02:32:30;;;;;;;14.70;5.17;;;2.80;99.90;;;;;;4916758;29;20195;-74
2023/01/31 02:35:28;;;;;;;10.60;4.87;;;2.80;99.90;;;;;;4918134;29;20209;-70
2023/01/31 02:38:22;;;;;;;11.43;5.20;;;2.80;99.90;;;;;;4931342;29;20247;-71
2023/01/31 02:41:25;;;;;;;11.93;5.20;;;2.90;99.90;;;;;;4932377;29;20199;-71
2023/01/31 02:47:31;;;;;;;16.00;5.37;;;2.90;99.90;;;;;;4931180;29;20195;-73
2023/01/31 02:50:10;;;;;;;14.07;4.90;;;2.90;99.90;;;;;;4936293;28;20228;-69
2023/01/31 02:52:55;;;;;;;13.40;5.50;;;2.90;99.90;;;;;;4992470;28;20555;-70
2023/01/31 02:58:33;;;;;;;13.77;4.90;;;2.90;99.90;;;;;;4984392;28;20251;-81
2023/01/31 03:01:02;;;;;;;12.67;4.70;;;3.00;99.90;;;;;;4992739;28;20320;-79
2023/01/31 03:03:34;;;;;;;11.77;4.83;;;3.00;99.90;;;;;;4992328;28;20228;-80
2023/01/31 03:06:21;;;;;;;12.80;5.20;;;2.90;99.90;;;;;;4992514;28;20215;-79
2023/01/31 03:09:06;;;;;;;14.57;4.90;;;3.00;99.90;;;;;;4986383;28;20212;-80
2023/01/31 03:11:53;;;;;;;12.10;4.67;;;3.00;99.90;;;;;;4993443;28;20224;-80
2023/01/31 03:14:45;;;;;;;15.83;4.40;;;3.00;99.90;;;;;;4979947;28;20543;-80
2023/01/31 03:17:31;;;;;;;11.23;4.80;;;3.00;99.90;;;;;;4972665;28;20210;-80
2023/01/31 03:20:09;;;;;;;13.23;4.80;;;3.00;99.90;;;;;;4995112;28;20213;-79
2023/01/31 03:22:50;;;;;;;13.50;5.27;;;3.00;99.90;;;;;;4974498;28;20185;-78
2023/01/31 03:25:20;;;;;;;14.97;4.80;;;3.10;99.90;;;;;;4988775;28;20204;-77
2023/01/31 03:27:54;;;;;;;12.10;4.50;;;3.00;99.90;;;;;;4985301;28;20205;-77
2023/01/31 03:30:38;;;;;;;14.57;4.60;;;3.00;99.90;;;;;;4991792;28;20217;-76
2023/01/31 03:33:46;;;;;;;15.03;4.73;;;3.00;99.90;;;;;;4987969;28;20244;-77
2023/01/31 03:36:22;;;;;;;17.60;4.57;;;3.10;99.90;;;;;;4936306;29;20731;-79
2023/01/31 03:39:27;;;;;;;13.07;4.40;;;3.00;99.90;;;;;;4954983;28;20676;-80
2023/01/31 03:42:18;;;;;;;15.80;4.07;;;3.10;99.90;;;;;;4927241;29;20691;-78
2023/01/31 03:45:08;;;;;;;8.37;3.83;;;3.00;99.90;;;;;;4956374;28;20568;-77
2023/01/31 03:47:42;;;;;;;8.97;3.90;;;3.10;99.90;;;;;;4940035;29;20194;-78
2023/01/31 03:50:15;;;;;;;11.77;3.80;;;3.10;99.90;;;;;;4940327;29;20233;-78
2023/01/31 03:53:08;;;;;;;19.30;3.90;;;3.10;99.90;;;;;;4956538;28;20542;-79
2023/01/31 03:55:42;;;;;;;14.37;4.13;;;3.10;99.90;;;;;;4967711;28;20214;-79
2023/01/31 03:58:11;;;;;;;10.13;3.53;;;3.10;99.90;;;;;;4956419;29;20293;-79
2023/01/31 04:00:42;;;;;;;14.37;4.20;;;3.10;99.90;;;;;;4955782;28;20232;-79
2023/01/31 04:03:34;;;;;;;15.67;4.10;;;3.10;99.90;;;;;;4956381;28;20203;-79
2023/01/31 04:06:02;;;;;;;13.73;3.60;;;3.00;99.90;;;;;;4956069;29;20215;-81
2023/01/31 04:08:31;;;;;;;13.30;3.23;;;3.10;99.90;;;;;;4955739;28;20260;-79
2023/01/31 04:10:59;;;;;;;13.73;3.43;;;3.10;99.90;;;;;;4959597;28;20225;-79
2023/01/31 04:13:26;;;;;;;13.33;3.73;;;3.10;99.90;;;;;;4977766;28;20187;-80
2023/01/31 04:15:53;;;;;;;13.03;3.57;;;3.20;99.90;;;;;;4992188;28;20238;-80
2023/01/31 04:18:20;;;;;;;11.37;3.10;;;3.10;99.90;;;;;;4992635;28;20689;-79
2023/01/31 04:20:46;;;;;;;13.07;3.23;;;3.10;99.90;;;;;;4976816;28;20216;-81
2023/01/31 04:23:13;;;;;;;10.87;3.00;;;3.00;99.90;;;;;;4992306;28;20269;-79
2023/01/31 04:25:40;;;;;;;16.67;3.27;;;3.10;99.90;;;;;;4992200;28;20606;-80
2023/01/31 04:28:11;;;;;;;11.40;3.00;;;3.10;99.90;;;;;;4977748;28;20232;-80
2023/01/31 04:30:38;;;;;;;12.00;3.20;;;3.00;99.90;;;;;;4992532;28;20229;-79
2023/01/31 04:33:05;;;;;;;14.17;2.90;;;3.00;99.90;;;;;;4992511;28;20268;-79
2023/01/31 04:35:33;;;;;;;12.30;3.03;;;3.00;99.90;;;;;;4995509;28;20196;-80
2023/01/31 04:38:00;;;;;;;15.63;3.53;;;3.00;99.90;;;;;;4994821;28;20209;-80
2023/01/31 04:40:27;;;;;;;12.20;2.80;;;3.00;99.90;;;;;;4996642;28;20195;-81
2023/01/31 04:42:54;;;;;;;9.63;3.07;;;2.90;99.90;;;;;;4995140;28;20212;-80
2023/01/31 04:45:21;;;;;;;16.47;2.90;;;2.90;99.90;;;;;;4996339;28;20193;-79
2023/01/31 04:47:48;;;;;;;14.03;2.93;;;2.90;99.90;;;;;;4995272;28;20288;-81
2023/01/31 04:50:15;;;;;;;15.60;3.47;;;3.00;99.90;;;;;;4978039;28;20626;-78
2023/01/31 04:52:42;;;;;;;13.03;2.80;;;2.90;99.90;;;;;;4994629;28;20201;-80
2023/01/31 04:55:09;;;;;;;14.03;3.37;;;2.90;99.90;;;;;;4994075;28;20205;-79
2023/01/31 04:57:36;;;;;;;14.03;3.00;;;2.90;99.90;;;;;;4995991;28;20247;-79
2023/01/31 05:00:04;;;;;;;13.33;3.03;;;2.80;99.90;;;;;;4994549;28;20317;-79
2023/01/31 05:02:31;;;;;;;13.93;3.23;;;2.80;99.90;;;;;;4996390;28;20272;-77
2023/01/31 05:04:58;;;;;;;17.30;3.53;;;2.80;99.90;;;;;;4995874;28;20197;-78
2023/01/31 05:07:24;;;;;;;14.10;3.07;;;2.80;99.90;;;;;;4994452;28;20212;-78
2023/01/31 05:09:51;;;;;;;13.57;3.00;;;2.80;99.90;;;;;;4994690;28;20240;-77
2023/01/31 05:12:18;;;;;;;14.07;2.70;;;2.80;99.90;;;;;;4978354;28;20233;-79
2023/01/31 05:14:45;;;;;;;13.50;2.90;;;2.80;99.90;;;;;;4998134;28;20204;-78
2023/01/31 05:17:12;;;;;;;21.80;3.07;;;2.80;99.90;;;;;;4997814;28;20200;-79
2023/01/31 05:19:42;;;;;;;12.70;3.20;;;2.80;99.90;;;;;;4997612;28;20192;-78
2023/01/31 05:22:09;;;;;;;15.40;3.67;;;2.80;99.90;;;;;;4997566;28;20204;-78
2023/01/31 05:24:36;;;;;;;12.87;2.73;;;2.90;99.90;;;;;;5014634;28;20203;-79
2023/01/31 05:27:06;;;;;;;13.17;2.77;;;2.90;99.90;;;;;;4997188;28;20638;-79
2023/01/31 05:29:34;;;;;;;15.13;3.03;;;2.90;99.90;;;;;;4997300;28;20212;-79
2023/01/31 05:32:02;;;;;;;13.20;2.83;;;2.90;99.90;;;;;;4996990;28;20220;-80
2023/01/31 05:34:32;;;;;;;10.30;2.40;;;3.00;99.90;;;;;;5015103;28;20653;-80
2023/01/31 05:37:00;;;;;;;12.37;2.77;;;2.90;99.90;;;;;;4997381;28;20258;-78
2023/01/31 05:39:29;;;;;;;16.73;3.00;;;3.00;99.90;;;;;;4997129;28;20242;-80
2023/01/31 05:41:57;;;;;;;13.50;2.67;;;3.10;99.90;;;;;;4997363;28;20191;-80
2023/01/31 05:44:23;;;;;;;14.20;2.70;;;3.00;99.90;;;;;;4997398;28;20208;-79
2023/01/31 05:46:50;;;;;;;10.90;2.53;;;3.00;99.90;;;;;;5014937;28;20192;-79
2023/01/31 05:49:17;;;;;;;12.53;2.87;;;2.90;99.90;;;;;;4997256;28;20290;-80
2023/01/31 05:51:44;;;;;;;8.77;2.27;;;3.00;99.90;;;;;;4996875;28;20232;-77
2023/01/31 05:54:11;;;;;;;10.17;2.50;;;3.00;99.90;;;;;;4996853;28;20192;-79
2023/01/31 05:56:38;;;;;;;13.40;2.53;;;3.00;99.90;;;;;;4996059;28;20212;-78
2023/01/31 05:59:05;;;;;;;13.10;2.37;;;3.00;99.90;;;;;;4982860;28;20221;-77
2023/01/31 06:01:32;;;;;;;14.73;2.90;;;3.00;99.90;;;;;;4976234;28;20201;-78
2023/01/31 06:04:02;;;;;;;16.03;2.70;;;3.00;99.90;;;;;;4994796;28;20197;-77
2023/01/31 06:06:29;;;;;;;10.30;2.40;;;3.00;99.90;;;;;;5028366;28;20228;-78
2023/01/31 06:08:56;;;;;;;12.17;2.40;;;3.00;99.90;;;;;;5014356;28;20270;-76
2023/01/31 06:11:24;;;;;;;16.40;3.10;;;3.00;99.90;;;;;;4980640;28;20742;-78
2023/01/31 06:13:51;;;;;;;11.57;2.70;;;3.00;99.90;;;;;;4996512;28;20200;-77
2023/01/31 06:16:17;;;;;;;12.07;2.67;;;3.00;99.90;;;;;;4996507;28;20696;-78
2023/01/31 06:18:44;;;;;;;10.50;2.80;;;3.00;99.90;;;;;;4996619;28;20190;-78
2023/01/31 06:21:11;;;;;;;10.93;2.77;;;3.00;99.90;;;;;;5029305;28;20208;-78
2023/01/31 06:23:39;;;;;;;11.90;2.67;;;3.00;99.90;;;;;;4995699;28;20239;-81
2023/01/31 06:26:06;;;;;;;13.60;2.77;;;3.00;99.90;;;;;;5011254;28;20551;-80
2023/01/31 06:28:32;;;;;;;8.80;2.83;;;2.90;99.90;;;;;;5009270;28;20638;-78
2023/01/31 06:31:08;;;;;;;11.23;2.63;;;2.90;99.90;;;;;;4996718;28;20217;-78
2023/01/31 06:33:36;;;;;;;15.83;3.13;;;3.00;99.90;;;;;;4993975;28;20232;-76
2023/01/31 06:36:14;;;;;;;11.90;3.10;;;2.90;99.90;;;;;;4994330;28;20716;-77
2023/01/31 06:38:48;;;;;;;13.43;3.23;;;3.00;99.90;;;;;;5009716;28;20232;-77
2023/01/31 06:41:15;;;;;;;13.47;2.77;;;2.90;99.90;;;;;;4976596;28;20244;-73
2023/01/31 06:43:42;;;;;;;17.87;4.20;;;2.90;99.90;;;;;;4994635;28;20560;-77
2023/01/31 06:46:09;;;;;;;15.40;3.50;;;2.90;99.90;;;;;;4983339;28;20216;-76
2023/01/31 06:48:36;;;;;;;17.57;4.17;;;2.90;99.90;;;;;;4994346;28;20200;-77
2023/01/31 06:51:04;;;;;;;10.77;3.30;;;2.80;99.90;;;;;;5008908;28;20582;-79
2023/01/31 06:53:34;;;;;;;12.10;3.03;;;2.90;99.90;;;;;;4992986;28;20219;-78
2023/01/31 06:56:01;;;;;;;14.47;3.00;;;2.80;99.90;;;;;;4994127;28;20205;-78
2023/01/31 06:58:32;;;;;;;12.47;3.07;;;2.90;99.90;;;;;;4993168;28;20189;-81
2023/01/31 07:01:08;;;;;;;15.63;3.20;;;2.80;99.90;;;;;;4996718;28;20199;-81
2023/01/31 07:03:35;;;;;;;12.03;2.80;;;2.90;99.90;;;;;;4993935;28;20188;-75
2023/01/31 07:06:04;;;;;;;10.37;2.80;;;2.80;99.90;;;;;;4980374;28;20321;-75
2023/01/31 07:08:31;;;;;;;11.47;2.83;;;2.80;99.90;;;;;;4976283;28;20558;-76
2023/01/31 07:11:02;;;;;;;11.97;2.77;;;2.90;99.90;;;;;;4992548;28;20218;-76
2023/01/31 07:13:30;;;;;;;15.63;3.00;;;2.80;99.90;;;;;;4976553;28;20205;-76
2023/01/31 07:15:57;;;;;;;11.90;2.93;;;2.80;99.90;;;;;;4989315;28;20627;-75
2023/01/31 07:18:24;;;;;;;15.90;2.80;;;2.80;99.90;;;;;;4994029;28;20224;-77
2023/01/31 07:20:51;;;;;;;8.67;3.30;;;2.90;99.90;;;;;;4994203;28;20255;-77
2023/01/31 07:23:19;;;;;;;10.87;2.93;;;2.90;99.90;;;;;;4992630;28;20661;-77
2023/01/31 07:25:46;;;;;;;11.83;2.90;;;2.90;99.90;;;;;;5000574;28;20198;-76
2023/01/31 07:28:12;;;;;;;12.23;2.63;;;2.90;99.90;;;;;;5012566;28;20654;-78
2023/01/31 07:30:42;;;;;;;10.90;2.97;;;2.90;99.90;;;;;;4993098;28;20201;-82
2023/01/31 07:33:13;;;;;;;13.60;3.30;;;3.00;99.90;;;;;;4976394;28;20228;-81
2023/01/31 07:35:43;;;;;;;16.23;4.10;;;2.90;99.90;;;;;;5001806;28;20211;-80
2023/01/31 07:38:42;;;;;;;14.17;3.20;;;2.90;99.90;;;;;;5062085;23;20233;-76
2023/01/31 07:41:10;;;;;;;13.43;3.20;;;2.80;99.90;;;;;;4962044;28;20663;-79
2023/01/31 07:43:37;;;;;;;14.23;3.20;;;3.00;99.90;;;;;;4968999;23;20631;-84
2023/01/31 07:46:09;;;;;;;12.43;2.83;;;2.90;99.90;;;;;;4974776;28;20208;-75
2023/01/31 07:48:36;;;;;;;13.80;3.07;;;3.00;99.90;;;;;;4974401;28;20188;-78
2023/01/31 07:51:04;;;;;;;15.20;3.30;;;3.00;99.90;;;;;;4972775;28;20225;-77
2023/01/31 07:53:40;;;;;;;13.00;2.83;;;3.10;99.90;;;;;;4973432;28;20200;-78
2023/01/31 07:56:16;;;;;;;14.13;2.80;;;3.00;99.90;;;;;;4956261;28;20194;-74
2023/01/31 07:58:44;;;;;;;9.00;2.20;;;3.00;99.90;;;;;;4971731;28;20195;-75
2023/01/31 08:04:22;;;;;;;10.70;2.50;;;3.00;99.90;;;;;;4955253;28;20216;-77
2023/01/31 08:07:01;;;;;;;10.67;2.77;;;3.00;99.90;;;;;;4939626;28;20670;-81
2023/01/31 08:09:32;;;;;;;11.47;2.53;;;3.00;99.90;;;;;;4955663;28;20219;-84
2023/01/31 08:11:59;;;;;;;7.73;2.50;;;3.20;99.90;;;;;;4971499;28;20229;-83
2023/01/31 08:14:27;;;;;;;9.27;2.40;;;3.10;99.90;;;;;;4972056;28;20288;-81
2023/01/31 08:16:55;;;;;;;11.93;2.50;;;3.10;99.90;;;;;;4971693;28;20232;-78
2023/01/31 08:19:23;;;;;;;8.27;2.47;;;3.10;99.90;;;;;;4971714;28;20258;-78
2023/01/31 08:21:50;;;;;;;10.07;2.53;;;3.10;99.90;;;;;;4971520;28;20212;-80
2023/01/31 08:24:17;;;;;;;9.30;2.40;;;3.20;99.90;;;;;;4955038;28;20191;-79
2023/01/31 08:26:45;;;;;;;12.83;2.73;;;3.20;99.90;;;;;;4958761;28;20238;-77
2023/01/31 08:29:12;;;;;;;11.63;2.73;;;3.20;99.90;;;;;;4976331;28;20684;-77
2023/01/31 08:31:40;;;;;;;12.30;2.70;;;3.30;99.90;;;;;;4977610;28;20232;-76
2023/01/31 08:34:07;;;;;;;10.00;2.53;;;3.20;99.90;;;;;;4993631;28;20227;-74
2023/01/31 08:36:35;;;;;;;8.57;2.50;;;3.20;99.90;;;;;;4977703;28;20207;-75
2023/01/31 08:39:03;;;;;;;11.73;2.70;;;3.20;99.90;;;;;;5005137;28;20196;-77
2023/01/31 08:41:33;;;;;;;13.43;2.73;;;3.30;99.90;;;;;;5016083;28;20188;-80
2023/01/31 08:44:02;;;;;;;10.93;2.60;;;3.20;99.90;;;;;;5014830;28;20672;-77
2023/01/31 08:46:33;;;;;;;10.90;3.00;;;3.20;99.90;;;;;;4998428;28;20205;-79
2023/01/31 08:49:05;;;;;;;12.13;3.13;;;3.30;99.90;;;;;;5014768;28;20660;-80
2023/01/31 08:51:32;;;;;;;8.63;2.73;;;3.30;99.90;;;;;;5014566;28;20212;-79
2023/01/31 08:53:59;;;;;;;11.37;3.17;;;3.30;99.90;;;;;;5014754;28;20204;-79
2023/01/31 08:56:26;;;;;;;12.60;3.97;;;3.30;99.90;;;;;;5016150;28;20271;-76
2023/01/31 08:58:54;;;;;;;18.27;4.20;;;3.30;99.90;;;;;;5014129;28;20271;-83
2023/01/31 09:01:21;;;;;;;11.13;3.40;;;3.40;99.90;;;;;;5014218;28;20410;-79
2023/01/31 09:03:49;;;;;;;12.20;3.10;;;3.40;99.90;;;;;;4998216;28;20200;-78
2023/01/31 09:06:19;;;;;;;12.80;3.00;;;3.60;99.90;;;;;;5015850;28;20527;-80
2023/01/31 09:08:46;;;;;;;10.37;2.50;;;3.70;99.90;;;;;;5015361;28;20196;-83
2023/01/31 09:11:17;;;;;;;12.53;2.60;;;3.70;99.90;;;;;;5013751;28;20227;-79
2023/01/31 09:13:50;;;;;;;9.70;2.53;;;3.70;99.90;;;;;;5013943;28;20204;-78
2023/01/31 09:16:18;;;;;;;9.27;2.37;;;3.70;99.90;;;;;;5015360;28;20547;-83
2023/01/31 09:18:46;;;;;;;11.67;2.53;;;3.80;99.90;;;;;;5014543;28;20196;-83
2023/01/31 09:21:18;;;;;;;9.67;2.37;;;3.70;99.90;;;;;;5014399;28;20220;-77
2023/01/31 09:23:47;;;;;;;8.70;2.40;;;3.60;99.90;;;;;;5014894;28;20196;-78
2023/01/31 09:26:15;;;;;;;9.43;2.40;;;3.60;99.90;;;;;;5013884;28;20555;-79
2023/01/31 09:28:42;;;;;;;7.07;2.37;;;3.70;99.90;;;;;;4996490;28;20200;-82
2023/01/31 09:31:12;;;;;;;11.80;2.60;;;3.60;99.90;;;;;;4982863;28;20240;-81
2023/01/31 09:33:40;;;;;;;12.20;2.73;;;3.60;99.90;;;;;;4977127;28;20211;-81
2023/01/31 09:36:15;;;;;;;9.63;2.53;;;3.60;99.90;;;;;;4976891;28;20186;-82
2023/01/31 09:38:43;;;;;;;10.67;2.60;;;3.60;99.90;;;;;;4976980;28;20623;-81
2023/01/31 09:41:22;;;;;;;9.30;2.50;;;3.60;99.90;;;;;;4976773;28;20212;-79
2023/01/31 09:44:24;;;;;;;10.47;2.57;;;3.60;99.90;;;;;;4993087;28;20204;-78
2023/01/31 09:46:57;;;;;;;8.00;2.50;;;3.60;99.90;;;;;;5012354;28;20195;-80
2023/01/31 09:49:36;;;;;;;14.07;2.63;;;3.60;99.90;;;;;;5012696;28;20600;-75
2023/01/31 09:52:03;;;;;;;12.73;3.00;;;3.60;99.90;;;;;;5012519;28;20311;-75
2023/01/31 09:54:37;;;;;;;13.00;3.00;;;3.70;99.90;;;;;;5012403;28;20198;-74
2023/01/31 09:57:39;;;;;;;14.13;3.30;;;3.70;99.90;;;;;;5012242;28;20559;-76
2023/01/31 10:00:24;;;;;;;11.23;2.63;;;3.80;99.90;;;;;;4971856;28;20268;-76
2023/01/31 10:03:41;;;;;;;13.33;3.30;;;3.80;99.90;;;;;;4972324;28;20201;-80
2023/01/31 10:06:22;;;;;;;15.93;3.23;;;3.70;99.90;;;;;;4880985;29;20230;-81
2023/01/31 10:09:18;;;;;;;12.13;3.03;;;3.70;99.90;;;;;;4877059;29;20213;-80
2023/01/31 10:11:55;;;;;;;12.23;2.90;;;3.70;99.90;;;;;;4877331;29;20691;-80
2023/01/31 10:14:46;;;;;;;14.37;3.10;;;3.70;99.90;;;;;;4886672;29;20714;-75
2023/01/31 10:17:27;;;;;;;14.80;2.93;;;3.70;99.90;;;;;;4879956;29;20242;-74
2023/01/31 10:20:17;;;;;;;11.37;3.03;;;3.70;99.90;;;;;;4880270;29;20298;-76
2023/01/31 10:23:13;;;;;;;9.87;2.67;;;3.70;99.90;;;;;;4986244;23;20329;-75
2023/01/31 10:25:53;;;;;;;10.17;2.60;;;3.80;99.90;;;;;;4989767;28;20276;-75
2023/01/31 10:28:26;;;;;;;12.30;2.70;;;4.00;99.90;;;;;;4993805;28;20284;-75
2023/01/31 10:31:32;;;;;;;9.40;2.63;;;4.10;99.90;;;;;;4993558;28;20267;-76
2023/01/31 10:33:59;;;;;;;5.07;2.10;;;4.10;99.90;;;;;;4992341;28;20670;-79
2023/01/31 10:36:58;;;;;;;10.03;2.50;;;4.20;99.90;;;;;;4993506;28;20178;-73
2023/01/31 10:39:29;;;;;;;18.00;2.50;;;4.20;99.90;;;;;;4993502;28;20663;-76
2023/01/31 10:42:00;;;;;;;7.87;2.23;;;4.10;99.90;;;;;;4992154;28;20599;-79
2023/01/31 10:44:45;;;;;;;11.80;2.70;;;4.00;99.90;;;;;;4991833;28;20201;-75
2023/01/31 10:47:16;;;;;;;11.33;2.63;;;4.00;99.90;;;;;;4991707;28;20205;-80
2023/01/31 10:49:46;;;;;;;9.00;2.20;;;4.20;99.90;;;;;;4991949;28;20229;-74
2023/01/31 10:52:33;;;;;;;8.77;2.23;;;4.20;99.90;;;;;;5008292;28;20217;-81
2023/01/31 10:55:11;;;;;;;9.37;2.30;;;4.20;99.90;;;;;;4992327;28;20204;-82
2023/01/31 10:57:38;;;;;;;9.07;2.30;;;4.40;99.90;;;;;;4992005;28;20328;-75
2023/01/31 11:00:07;;;;;;;8.57;2.17;;;4.30;99.90;;;;;;4993395;28;20230;-74
2023/01/31 11:02:35;;;;;;;10.37;2.13;;;4.30;99.90;;;;;;4971427;28;20264;-77
2023/01/31 11:05:03;;;;;;;10.10;2.50;;;4.40;99.90;;;;;;4983194;28;20215;-76
2023/01/31 11:07:30;;;;;;;7.97;2.40;;;4.30;99.90;;;;;;4991799;28;20204;-75
2023/01/31 11:09:57;;;;;;;8.67;2.40;;;4.30;99.90;;;;;;4991697;28;20211;-78
2023/01/31 11:12:50;;;;;;;9.70;2.63;;;4.20;99.90;;;;;;4991572;28;20600;-78
2023/01/31 11:15:19;;;;;;;10.07;2.63;;;4.40;99.90;;;;;;4991337;28;20312;-75
2023/01/31 11:17:46;;;;;;;9.77;2.40;;;4.20;99.90;;;;;;4992649;28;20268;-75
2023/01/31 11:20:36;;;;;;;7.17;2.33;;;4.10;99.90;;;;;;4993191;28;20202;-75
2023/01/31 11:23:05;;;;;;;7.43;2.20;;;4.10;99.90;;;;;;5010086;28;20228;-79
2023/01/31 11:25:33;;;;;;;7.97;2.40;;;4.30;99.90;;;;;;5011222;28;20655;-74
2023/01/31 11:28:04;;;;;;;11.53;2.47;;;4.30;99.90;;;;;;5011414;28;20250;-75
2023/01/31 11:30:37;;;;;;;8.03;2.40;;;4.30;99.90;;;;;;5010947;28;20259;-75
2023/01/31 11:33:04;;;;;;;8.77;2.23;;;4.30;99.90;;;;;;5010920;28;20243;-75
2023/01/31 11:35:33;;;;;;;9.97;2.57;;;4.30;99.90;;;;;;5011025;28;20197;-76
2023/01/31 11:38:19;;;;;;;8.97;2.03;;;4.40;99.90;;;;;;5011339;28;20201;-79
2023/01/31 11:40:46;;;;;;;9.03;2.07;;;4.50;99.90;;;;;;5011926;28;20279;-76
2023/01/31 11:43:15;;;;;;;6.67;1.93;;;4.60;99.90;;;;;;4991511;28;20217;-78
2023/01/31 11:45:44;;;;;;;6.40;2.00;;;4.60;99.90;;;;;;4991070;28;20206;-79
2023/01/31 11:48:21;;;;;;;7.27;2.13;;;4.60;99.90;;;;;;4990456;28;20630;-74
2023/01/31 11:50:57;;;;;;;10.30;2.17;;;4.80;99.90;;;;;;4992485;28;20202;-76
2023/01/31 11:53:31;;;;;;;12.67;2.60;;;4.90;99.90;;;;;;4991277;28;20224;-75
2023/01/31 11:56:12;;;;;;;11.03;2.93;;;4.80;99.90;;;;;;4987944;28;20205;-75
2023/01/31 11:58:40;;;;;;;10.47;2.50;;;4.60;99.90;;;;;;4971611;28;20659;-78
2023/01/31 12:01:21;;;;;;;11.60;2.40;;;4.50;99.90;;;;;;4974114;28;20189;-75
2023/01/31 12:04:00;;;;;;;8.17;2.50;;;4.60;99.90;;;;;;4982340;28;20197;-74
2023/01/31 12:06:35;;;;;;;13.33;3.00;;;4.90;99.90;;;;;;5015719;28;20192;-74
2023/01/31 12:09:21;;;;;;;8.17;2.83;;;5.50;99.90;;;;;;5014498;28;20290;-79
2023/01/31 12:12:02;;;;;;;9.33;2.60;;;5.50;99.90;;;;;;5014653;28;20193;-77
2023/01/31 12:14:38;;;;;;;9.00;3.00;;;5.50;99.90;;;;;;5014273;28;20652;-79
2023/01/31 12:17:13;;;;;;;6.30;2.90;;;5.90;99.90;;;;;;5014131;28;20228;-79
2023/01/31 12:20:02;;;;;;;10.20;2.80;;;6.30;99.90;;;;;;5015592;28;20181;-75
2023/01/31 12:23:15;;;;;;;9.00;2.60;;;7.20;99.90;;;;;;5013869;28;20577;-76
2023/01/31 12:25:52;;;;;;;9.97;2.80;;;6.60;99.90;;;;;;5014458;28;20202;-75
2023/01/31 12:28:58;;;;;;;9.13;2.93;;;6.20;99.90;;;;;;5010838;28;20198;-78
2023/01/31 12:31:38;;;;;;;11.37;2.90;;;5.90;99.90;;;;;;4973623;28;20298;-80
2023/01/31 12:34:18;;;;;;;9.20;2.77;;;5.70;99.90;;;;;;4994343;28;20198;-75
2023/01/31 12:37:16;;;;;;;8.53;2.90;;;5.60;99.90;;;;;;4994129;28;20198;-79
2023/01/31 12:39:49;;;;;;;10.00;2.57;;;5.40;99.90;;;;;;4994420;28;20682;-80
2023/01/31 12:42:45;;;;;;;9.90;2.87;;;5.50;99.90;;;;;;4995701;28;20551;-78
2023/01/31 12:45:37;;;;;;;7.67;2.23;;;5.20;99.90;;;;;;4994443;28;20225;-79
2023/01/31 12:48:32;;;;;;;8.67;2.57;;;5.00;99.90;;;;;;4994196;28;20208;-79
2023/01/31 12:51:30;;;;;;;6.83;2.03;;;4.90;99.90;;;;;;4978173;28;20756;-78
2023/01/31 12:54:09;;;;;;;9.07;2.30;;;4.70;99.90;;;;;;4993927;28;20711;-78
2023/01/31 12:56:58;;;;;;;7.57;2.40;;;4.50;99.90;;;;;;4995622;28;20272;-76
2023/01/31 12:59:31;;;;;;;7.90;2.30;;;4.50;99.90;;;;;;4993814;28;20577;-77
2023/01/31 13:02:07;;;;;;;9.97;2.50;;;4.50;99.90;;;;;;4994105;28;20199;-75
2023/01/31 13:04:43;;;;;;;8.63;2.20;;;4.70;99.90;;;;;;4994001;28;20213;-76
2023/01/31 13:07:44;;;;;;;7.63;2.20;;;4.70;99.90;;;;;;4993607;28;20209;-78
2023/01/31 13:10:36;;;;;;;7.83;2.13;;;5.00;99.90;;;;;;4918609;29;20590;-76
2023/01/31 13:13:09;;;;;;;7.13;2.00;;;5.70;99.90;;;;;;4918925;29;20576;-76
2023/01/31 13:15:46;;;;;;;7.63;1.57;;;5.90;99.90;;;;;;4934565;29;20294;-75
2023/01/31 13:18:14;;;;;;;9.10;1.87;;;5.50;99.90;;;;;;4934640;29;20237;-75
2023/01/31 13:20:56;;;;;;;8.23;1.83;;;5.30;99.90;;;;;;4934434;29;20193;-75
2023/01/31 13:23:35;;;;;;;5.87;1.83;;;5.40;99.90;;;;;;4933788;29;20246;-75
2023/01/31 13:26:21;;;;;;;9.10;2.00;;;5.50;99.90;;;;;;4918376;29;20298;-75
2023/01/31 13:29:12;;;;;;;10.10;2.20;;;5.40;99.90;;;;;;4933055;29;20298;-73
2023/01/31 13:32:05;;;;;;;8.93;2.70;;;5.40;99.90;;;;;;4932357;29;20224;-74
2023/01/31 13:34:57;;;;;;;7.00;2.00;;;5.20;99.90;;;;;;4917356;29;20225;-78
2023/01/31 13:37:29;;;;;;;5.30;1.90;;;5.00;99.90;;;;;;4934123;29;20210;-76